Terminal Aerodrome Forecast
Issued by NWS

Home | Current Version | Previous Version | Text Only | Print | Product List | Glossary On
Versions: 1 2 3 4 5 6 7 8 9 10 11 12 13 14 15 16
000
FTUS43 KMQT 221739 AAA
TAFCMX
TAF AMD
KCMX 221739Z 2218/2318 30022G31KT P6SM SCT022
     FM222300 29014G23KT P6SM VCSH SCT022
     FM230300 32011G20KT P6SM BKN070
     FM230500 33010KT P6SM SCT050
     FM231700 32012G20KT P6SM FEW150=

USA.gov is the U.S. government's official web portal to all federal, state and local government web resources and services.